sensor_id;sensor_type;location;lat;lon;timestamp;P1;durP1;ratioP1;P2;durP2;ratioP2
35578;SDS011;21687;48.900;9.188;2022-09-06T00:01:34;3.53;;;3.23;;
35578;SDS011;21687;48.900;9.188;2022-09-06T00:04:21;3.37;;;3.07;;
35578;SDS011;21687;48.900;9.188;2022-09-06T00:07:07;5.53;;;3.80;;
35578;SDS011;21687;48.900;9.188;2022-09-06T00:09:54;3.30;;;3.00;;
35578;SDS011;21687;48.900;9.188;2022-09-06T00:12:41;3.90;;;3.50;;
35578;SDS011;21687;48.900;9.188;2022-09-06T00:15:27;3.27;;;3.07;;
35578;SDS011;21687;48.900;9.188;2022-09-06T00:18:14;3.40;;;3.10;;
35578;SDS011;21687;48.900;9.188;2022-09-06T00:21:01;3.70;;;3.40;;
35578;SDS011;21687;48.900;9.188;2022-09-06T00:23:49;4.60;;;3.57;;
35578;SDS011;21687;48.900;9.188;2022-09-06T00:26:36;4.10;;;3.27;;
35578;SDS011;21687;48.900;9.188;2022-09-06T00:29:22;4.23;;;3.47;;
35578;SDS011;21687;48.900;9.188;2022-09-06T00:32:08;4.10;;;3.70;;
35578;SDS011;21687;48.900;9.188;2022-09-06T00:34:55;3.97;;;3.67;;
35578;SDS011;21687;48.900;9.188;2022-09-06T00:37:41;4.00;;;3.60;;
35578;SDS011;21687;48.900;9.188;2022-09-06T00:40:28;4.87;;;3.90;;
35578;SDS011;21687;48.900;9.188;2022-09-06T00:43:18;3.77;;;3.30;;
35578;SDS011;21687;48.900;9.188;2022-09-06T00:46:05;5.73;;;4.03;;
35578;SDS011;21687;48.900;9.188;2022-09-06T00:48:56;4.10;;;3.73;;
35578;SDS011;21687;48.900;9.188;2022-09-06T00:51:50;3.97;;;3.67;;
35578;SDS011;21687;48.900;9.188;2022-09-06T00:54:49;5.17;;;4.03;;
35578;SDS011;21687;48.900;9.188;2022-09-06T00:57:36;5.20;;;4.63;;
35578;SDS011;21687;48.900;9.188;2022-09-06T01:00:23;3.70;;;3.40;;
35578;SDS011;21687;48.900;9.188;2022-09-06T01:03:09;4.27;;;3.50;;
35578;SDS011;21687;48.900;9.188;2022-09-06T01:09:00;3.57;;;3.27;;
35578;SDS011;21687;48.900;9.188;2022-09-06T01:31:10;3.80;;;3.50;;
35578;SDS011;21687;48.900;9.188;2022-09-06T01:36:54;5.33;;;4.00;;
35578;SDS011;21687;48.900;9.188;2022-09-06T01:39:47;6.53;;;4.50;;
35578;SDS011;21687;48.900;9.188;2022-09-06T01:42:33;5.27;;;4.53;;
35578;SDS011;21687;48.900;9.188;2022-09-06T01:45:25;4.90;;;4.23;;
35578;SDS011;21687;48.900;9.188;2022-09-06T01:48:56;4.30;;;3.73;;
35578;SDS011;21687;48.900;9.188;2022-09-06T01:51:55;4.50;;;4.10;;
35578;SDS011;21687;48.900;9.188;2022-09-06T01:55:01;4.20;;;3.80;;
35578;SDS011;21687;48.900;9.188;2022-09-06T02:01:37;5.73;;;3.80;;
35578;SDS011;21687;48.900;9.188;2022-09-06T02:07:35;5.43;;;3.73;;
35578;SDS011;21687;48.900;9.188;2022-09-06T02:10:26;4.33;;;3.93;;
35578;SDS011;21687;48.900;9.188;2022-09-06T02:13:13;4.83;;;3.40;;
35578;SDS011;21687;48.900;9.188;2022-09-06T02:16:02;5.77;;;4.63;;
35578;SDS011;21687;48.900;9.188;2022-09-06T02:18:55;4.87;;;4.43;;
35578;SDS011;21687;48.900;9.188;2022-09-06T02:21:47;4.80;;;4.03;;
35578;SDS011;21687;48.900;9.188;2022-09-06T02:24:36;4.33;;;3.87;;
35578;SDS011;21687;48.900;9.188;2022-09-06T02:27:25;5.00;;;3.70;;
35578;SDS011;21687;48.900;9.188;2022-09-06T02:30:12;3.93;;;3.50;;
35578;SDS011;21687;48.900;9.188;2022-09-06T02:33:00;6.23;;;4.27;;
35578;SDS011;21687;48.900;9.188;2022-09-06T02:35:52;6.57;;;4.60;;
35578;SDS011;21687;48.900;9.188;2022-09-06T02:38:40;5.83;;;4.00;;
35578;SDS011;21687;48.900;9.188;2022-09-06T02:41:28;7.20;;;4.70;;
35578;SDS011;21687;48.900;9.188;2022-09-06T02:44:16;5.67;;;4.30;;
35578;SDS011;21687;48.900;9.188;2022-09-06T02:47:02;6.10;;;4.80;;
35578;SDS011;21687;48.900;9.188;2022-09-06T02:49:50;5.37;;;4.87;;
35578;SDS011;21687;48.900;9.188;2022-09-06T02:52:36;5.70;;;5.20;;
35578;SDS011;21687;48.900;9.188;2022-09-06T02:55:22;5.67;;;5.03;;
35578;SDS011;21687;48.900;9.188;2022-09-06T02:58:09;6.17;;;5.57;;
35578;SDS011;21687;48.900;9.188;2022-09-06T03:00:56;8.47;;;5.43;;
35578;SDS011;21687;48.900;9.188;2022-09-06T03:03:43;6.27;;;5.13;;
35578;SDS011;21687;48.900;9.188;2022-09-06T03:06:30;7.60;;;5.57;;
35578;SDS011;21687;48.900;9.188;2022-09-06T03:09:16;7.73;;;6.10;;
35578;SDS011;21687;48.900;9.188;2022-09-06T03:12:03;6.50;;;5.90;;
35578;SDS011;21687;48.900;9.188;2022-09-06T03:14:49;6.30;;;5.70;;
35578;SDS011;21687;48.900;9.188;2022-09-06T03:17:36;6.93;;;5.57;;
35578;SDS011;21687;48.900;9.188;2022-09-06T03:20:23;6.20;;;5.60;;
35578;SDS011;21687;48.900;9.188;2022-09-06T03:23:10;7.17;;;5.60;;
35578;SDS011;21687;48.900;9.188;2022-09-06T03:25:56;9.43;;;6.17;;
35578;SDS011;21687;48.900;9.188;2022-09-06T03:28:43;11.13;;;6.97;;
35578;SDS011;21687;48.900;9.188;2022-09-06T03:31:29;8.47;;;6.23;;
35578;SDS011;21687;48.900;9.188;2022-09-06T03:34:16;9.10;;;6.70;;
35578;SDS011;21687;48.900;9.188;2022-09-06T03:37:02;8.57;;;7.20;;
35578;SDS011;21687;48.900;9.188;2022-09-06T03:39:49;8.20;;;7.40;;
35578;SDS011;21687;48.900;9.188;2022-09-06T03:42:35;11.77;;;7.73;;
35578;SDS011;21687;48.900;9.188;2022-09-06T03:45:22;10.37;;;6.23;;
35578;SDS011;21687;48.900;9.188;2022-09-06T03:48:08;8.63;;;6.87;;
35578;SDS011;21687;48.900;9.188;2022-09-06T03:50:55;9.50;;;7.57;;
35578;SDS011;21687;48.900;9.188;2022-09-06T03:53:43;9.17;;;8.00;;
35578;SDS011;21687;48.900;9.188;2022-09-06T03:56:29;7.93;;;7.23;;
35578;SDS011;21687;48.900;9.188;2022-09-06T03:59:16;8.63;;;7.83;;
35578;SDS011;21687;48.900;9.188;2022-09-06T04:02:02;9.93;;;8.10;;
35578;SDS011;21687;48.900;9.188;2022-09-06T04:04:49;8.30;;;7.50;;
35578;SDS011;21687;48.900;9.188;2022-09-06T04:07:39;10.03;;;8.87;;
35578;SDS011;21687;48.900;9.188;2022-09-06T04:10:28;11.10;;;8.33;;
35578;SDS011;21687;48.900;9.188;2022-09-06T04:13:14;9.10;;;8.20;;
35578;SDS011;21687;48.900;9.188;2022-09-06T04:16:01;9.00;;;8.20;;
35578;SDS011;21687;48.900;9.188;2022-09-06T04:18:49;9.27;;;8.33;;
35578;SDS011;21687;48.900;9.188;2022-09-06T04:21:36;11.33;;;9.07;;
35578;SDS011;21687;48.900;9.188;2022-09-06T04:24:23;11.83;;;9.27;;
35578;SDS011;21687;48.900;9.188;2022-09-06T04:27:09;12.33;;;9.70;;
35578;SDS011;21687;48.900;9.188;2022-09-06T04:29:56;10.23;;;9.23;;
35578;SDS011;21687;48.900;9.188;2022-09-06T04:32:42;9.77;;;8.23;;
35578;SDS011;21687;48.900;9.188;2022-09-06T04:35:29;10.57;;;8.80;;
35578;SDS011;21687;48.900;9.188;2022-09-06T04:38:15;9.17;;;8.10;;
35578;SDS011;21687;48.900;9.188;2022-09-06T04:41:02;9.43;;;8.30;;
35578;SDS011;21687;48.900;9.188;2022-09-06T04:43:50;9.23;;;8.13;;
35578;SDS011;21687;48.900;9.188;2022-09-06T04:46:36;8.87;;;7.40;;
35578;SDS011;21687;48.900;9.188;2022-09-06T04:49:26;8.80;;;7.90;;
35578;SDS011;21687;48.900;9.188;2022-09-06T04:52:13;9.00;;;7.53;;
35578;SDS011;21687;48.900;9.188;2022-09-06T04:54:59;8.47;;;7.57;;
35578;SDS011;21687;48.900;9.188;2022-09-06T04:57:46;8.20;;;7.40;;
35578;SDS011;21687;48.900;9.188;2022-09-06T05:00:33;12.70;;;7.73;;
35578;SDS011;21687;48.900;9.188;2022-09-06T05:03:20;11.33;;;8.07;;
35578;SDS011;21687;48.900;9.188;2022-09-06T05:06:11;9.57;;;8.17;;
35578;SDS011;21687;48.900;9.188;2022-09-06T05:09:07;9.67;;;7.97;;
35578;SDS011;21687;48.900;9.188;2022-09-06T05:11:54;8.47;;;7.37;;
35578;SDS011;21687;48.900;9.188;2022-09-06T05:14:40;9.70;;;8.07;;
35578;SDS011;21687;48.900;9.188;2022-09-06T05:17:27;11.33;;;7.93;;
35578;SDS011;21687;48.900;9.188;2022-09-06T05:20:14;9.70;;;8.77;;
35578;SDS011;21687;48.900;9.188;2022-09-06T05:23:01;13.50;;;9.47;;
35578;SDS011;21687;48.900;9.188;2022-09-06T05:25:48;10.70;;;9.60;;
35578;SDS011;21687;48.900;9.188;2022-09-06T05:28:35;10.50;;;8.23;;
35578;SDS011;21687;48.900;9.188;2022-09-06T05:31:25;11.17;;;9.40;;
35578;SDS011;21687;48.900;9.188;2022-09-06T05:34:13;9.67;;;8.67;;
35578;SDS011;21687;48.900;9.188;2022-09-06T05:36:59;10.53;;;9.03;;
35578;SDS011;21687;48.900;9.188;2022-09-06T05:39:46;11.13;;;8.33;;
35578;SDS011;21687;48.900;9.188;2022-09-06T05:42:33;11.03;;;8.47;;
35578;SDS011;21687;48.900;9.188;2022-09-06T05:45:20;10.10;;;8.53;;
35578;SDS011;21687;48.900;9.188;2022-09-06T05:48:06;9.13;;;7.53;;
35578;SDS011;21687;48.900;9.188;2022-09-06T05:51:03;9.27;;;8.27;;
35578;SDS011;21687;48.900;9.188;2022-09-06T05:53:51;10.40;;;8.33;;
35578;SDS011;21687;48.900;9.188;2022-09-06T05:56:38;13.43;;;8.33;;
35578;SDS011;21687;48.900;9.188;2022-09-06T05:59:24;8.60;;;7.80;;
35578;SDS011;21687;48.900;9.188;2022-09-06T06:02:11;9.13;;;7.60;;
35578;SDS011;21687;48.900;9.188;2022-09-06T06:04:57;11.23;;;7.43;;
35578;SDS011;21687;48.900;9.188;2022-09-06T06:07:44;11.23;;;7.77;;
35578;SDS011;21687;48.900;9.188;2022-09-06T06:10:31;8.93;;;7.20;;
35578;SDS011;21687;48.900;9.188;2022-09-06T06:13:17;10.60;;;8.20;;
35578;SDS011;21687;48.900;9.188;2022-09-06T06:16:11;8.00;;;7.17;;
35578;SDS011;21687;48.900;9.188;2022-09-06T06:18:59;12.17;;;7.23;;
35578;SDS011;21687;48.900;9.188;2022-09-06T06:21:45;8.57;;;7.50;;
35578;SDS011;21687;48.900;9.188;2022-09-06T06:24:32;8.77;;;7.20;;
35578;SDS011;21687;48.900;9.188;2022-09-06T06:27:18;9.03;;;7.13;;
35578;SDS011;21687;48.900;9.188;2022-09-06T06:30:05;8.30;;;5.90;;
35578;SDS011;21687;48.900;9.188;2022-09-06T06:32:52;7.77;;;6.40;;
35578;SDS011;21687;48.900;9.188;2022-09-06T06:35:39;7.70;;;6.13;;
35578;SDS011;21687;48.900;9.188;2022-09-06T06:38:29;6.40;;;5.77;;
35578;SDS011;21687;48.900;9.188;2022-09-06T06:41:17;6.53;;;5.90;;
35578;SDS011;21687;48.900;9.188;2022-09-06T06:44:08;7.60;;;5.67;;
35578;SDS011;21687;48.900;9.188;2022-09-06T06:46:54;6.17;;;5.13;;
35578;SDS011;21687;48.900;9.188;2022-09-06T06:49:42;6.67;;;5.13;;
35578;SDS011;21687;48.900;9.188;2022-09-06T06:52:28;6.00;;;5.50;;
35578;SDS011;21687;48.900;9.188;2022-09-06T06:55:15;5.77;;;5.20;;
35578;SDS011;21687;48.900;9.188;2022-09-06T06:58:02;6.03;;;4.87;;
35578;SDS011;21687;48.900;9.188;2022-09-06T07:00:48;5.30;;;4.70;;
35578;SDS011;21687;48.900;9.188;2022-09-06T07:03:35;5.20;;;4.50;;
35578;SDS011;21687;48.900;9.188;2022-09-06T07:06:22;4.40;;;4.00;;
35578;SDS011;21687;48.900;9.188;2022-09-06T07:09:09;6.53;;;4.50;;
35578;SDS011;21687;48.900;9.188;2022-09-06T07:11:55;6.57;;;4.10;;
35578;SDS011;21687;48.900;9.188;2022-09-06T07:14:42;4.40;;;3.87;;
35578;SDS011;21687;48.900;9.188;2022-09-06T07:17:29;6.63;;;3.83;;
35578;SDS011;21687;48.900;9.188;2022-09-06T07:20:15;7.37;;;4.50;;
35578;SDS011;21687;48.900;9.188;2022-09-06T07:30:51;4.43;;;3.73;;
35578;SDS011;21687;48.900;9.188;2022-09-06T07:34:03;5.30;;;3.70;;
35578;SDS011;21687;48.900;9.188;2022-09-06T07:36:53;4.43;;;4.03;;
35578;SDS011;21687;48.900;9.188;2022-09-06T07:39:40;5.30;;;4.07;;
35578;SDS011;21687;48.900;9.188;2022-09-06T07:42:26;4.47;;;3.93;;
35578;SDS011;21687;48.900;9.188;2022-09-06T07:45:15;4.67;;;4.13;;
35578;SDS011;21687;48.900;9.188;2022-09-06T07:48:02;7.27;;;4.23;;
35578;SDS011;21687;48.900;9.188;2022-09-06T07:50:48;4.10;;;3.70;;
35578;SDS011;21687;48.900;9.188;2022-09-06T07:54:14;5.93;;;4.27;;
35578;SDS011;21687;48.900;9.188;2022-09-06T07:57:08;6.57;;;4.00;;
35578;SDS011;21687;48.900;9.188;2022-09-06T07:59:56;5.67;;;4.30;;
35578;SDS011;21687;48.900;9.188;2022-09-06T08:02:42;6.67;;;3.87;;
35578;SDS011;21687;48.900;9.188;2022-09-06T08:05:29;5.13;;;3.70;;
35578;SDS011;21687;48.900;9.188;2022-09-06T08:08:15;6.27;;;3.77;;
35578;SDS011;21687;48.900;9.188;2022-09-06T08:11:02;5.57;;;3.60;;
35578;SDS011;21687;48.900;9.188;2022-09-06T08:13:52;3.93;;;3.53;;
35578;SDS011;21687;48.900;9.188;2022-09-06T08:16:39;5.20;;;3.60;;
35578;SDS011;21687;48.900;9.188;2022-09-06T08:19:26;4.37;;;3.10;;
35578;SDS011;21687;48.900;9.188;2022-09-06T08:22:12;4.20;;;3.20;;
35578;SDS011;21687;48.900;9.188;2022-09-06T08:24:59;7.03;;;3.37;;
35578;SDS011;21687;48.900;9.188;2022-09-06T08:27:46;3.90;;;3.23;;
35578;SDS011;21687;48.900;9.188;2022-09-06T08:30:32;4.90;;;3.20;;
35578;SDS011;21687;48.900;9.188;2022-09-06T08:33:19;4.07;;;3.50;;
35578;SDS011;21687;48.900;9.188;2022-09-06T08:36:10;3.30;;;3.00;;
35578;SDS011;21687;48.900;9.188;2022-09-06T08:39:02;3.83;;;2.90;;
35578;SDS011;21687;48.900;9.188;2022-09-06T08:41:52;4.77;;;3.30;;
35578;SDS011;21687;48.900;9.188;2022-09-06T08:44:43;6.13;;;3.50;;
35578;SDS011;21687;48.900;9.188;2022-09-06T08:47:37;5.10;;;3.43;;
35578;SDS011;21687;48.900;9.188;2022-09-06T08:50:24;3.10;;;2.80;;
35578;SDS011;21687;48.900;9.188;2022-09-06T08:53:15;4.07;;;3.40;;
35578;SDS011;21687;48.900;9.188;2022-09-06T08:56:04;3.70;;;2.97;;
35578;SDS011;21687;48.900;9.188;2022-09-06T08:59:10;3.47;;;2.80;;
35578;SDS011;21687;48.900;9.188;2022-09-06T09:02:02;6.57;;;3.37;;
35578;SDS011;21687;48.900;9.188;2022-09-06T09:05:03;6.57;;;3.00;;
35578;SDS011;21687;48.900;9.188;2022-09-06T09:08:14;6.03;;;3.63;;
35578;SDS011;21687;48.900;9.188;2022-09-06T09:11:14;4.27;;;2.90;;
35578;SDS011;21687;48.900;9.188;2022-09-06T09:14:18;3.60;;;3.07;;
35578;SDS011;21687;48.900;9.188;2022-09-06T09:17:15;3.40;;;3.10;;
35578;SDS011;21687;48.900;9.188;2022-09-06T09:20:06;3.10;;;2.80;;
35578;SDS011;21687;48.900;9.188;2022-09-06T09:22:53;7.40;;;3.57;;
35578;SDS011;21687;48.900;9.188;2022-09-06T09:25:40;4.87;;;3.23;;
35578;SDS011;21687;48.900;9.188;2022-09-06T09:28:28;5.47;;;3.80;;
35578;SDS011;21687;48.900;9.188;2022-09-06T09:31:14;3.47;;;3.17;;
35578;SDS011;21687;48.900;9.188;2022-09-06T09:34:28;2.90;;;2.67;;
35578;SDS011;21687;48.900;9.188;2022-09-06T09:37:23;3.30;;;2.67;;
35578;SDS011;21687;48.900;9.188;2022-09-06T09:40:26;3.23;;;2.90;;
35578;SDS011;21687;48.900;9.188;2022-09-06T09:43:30;6.47;;;2.67;;
35578;SDS011;21687;48.900;9.188;2022-09-06T09:49:32;5.30;;;2.57;;
35578;SDS011;21687;48.900;9.188;2022-09-06T09:52:29;4.53;;;2.67;;
35578;SDS011;21687;48.900;9.188;2022-09-06T09:55:18;3.87;;;3.07;;
35578;SDS011;21687;48.900;9.188;2022-09-06T09:58:31;6.13;;;3.03;;
35578;SDS011;21687;48.900;9.188;2022-09-06T10:01:28;6.07;;;3.10;;
35578;SDS011;21687;48.900;9.188;2022-09-06T10:04:17;5.70;;;2.77;;
35578;SDS011;21687;48.900;9.188;2022-09-06T10:07:12;5.63;;;2.73;;
35578;SDS011;21687;48.900;9.188;2022-09-06T10:10:00;4.33;;;2.90;;
35578;SDS011;21687;48.900;9.188;2022-09-06T10:13:05;3.73;;;2.77;;
35578;SDS011;21687;48.900;9.188;2022-09-06T10:15:52;3.33;;;2.53;;
35578;SDS011;21687;48.900;9.188;2022-09-06T10:18:40;3.77;;;2.47;;
35578;SDS011;21687;48.900;9.188;2022-09-06T10:21:28;3.40;;;2.67;;
35578;SDS011;21687;48.900;9.188;2022-09-06T10:24:21;3.70;;;2.63;;
35578;SDS011;21687;48.900;9.188;2022-09-06T10:27:24;6.33;;;3.03;;
35578;SDS011;21687;48.900;9.188;2022-09-06T10:30:12;3.57;;;2.30;;
35578;SDS011;21687;48.900;9.188;2022-09-06T10:35:59;8.57;;;2.80;;
35578;SDS011;21687;48.900;9.188;2022-09-06T10:38:55;2.50;;;2.30;;
35578;SDS011;21687;48.900;9.188;2022-09-06T10:45:02;3.27;;;2.53;;
35578;SDS011;21687;48.900;9.188;2022-09-06T10:48:34;2.77;;;2.20;;
35578;SDS011;21687;48.900;9.188;2022-09-06T10:54:23;4.03;;;2.67;;
35578;SDS011;21687;48.900;9.188;2022-09-06T10:57:11;4.67;;;2.60;;
35578;SDS011;21687;48.900;9.188;2022-09-06T11:00:07;2.97;;;2.50;;
35578;SDS011;21687;48.900;9.188;2022-09-06T11:06:18;2.57;;;2.37;;
35578;SDS011;21687;48.900;9.188;2022-09-06T11:09:16;5.07;;;3.27;;
35578;SDS011;21687;48.900;9.188;2022-09-06T11:15:18;3.77;;;2.50;;
35578;SDS011;21687;48.900;9.188;2022-09-06T11:18:08;2.63;;;2.43;;
35578;SDS011;21687;48.900;9.188;2022-09-06T11:24:07;7.00;;;3.07;;
35578;SDS011;21687;48.900;9.188;2022-09-06T11:27:04;2.70;;;2.27;;
35578;SDS011;21687;48.900;9.188;2022-09-06T11:30:04;2.97;;;2.73;;
35578;SDS011;21687;48.900;9.188;2022-09-06T11:33:01;3.53;;;2.60;;
35578;SDS011;21687;48.900;9.188;2022-09-06T11:36:22;4.60;;;2.70;;
35578;SDS011;21687;48.900;9.188;2022-09-06T11:42:38;4.00;;;2.80;;
35578;SDS011;21687;48.900;9.188;2022-09-06T11:45:39;2.73;;;2.53;;
35578;SDS011;21687;48.900;9.188;2022-09-06T11:48:42;4.93;;;2.63;;
35578;SDS011;21687;48.900;9.188;2022-09-06T11:51:45;3.20;;;2.30;;
35578;SDS011;21687;48.900;9.188;2022-09-06T11:54:41;5.43;;;2.50;;
35578;SDS011;21687;48.900;9.188;2022-09-06T11:57:31;5.97;;;2.77;;
35578;SDS011;21687;48.900;9.188;2022-09-06T12:00:19;6.17;;;4.03;;
35578;SDS011;21687;48.900;9.188;2022-09-06T12:03:08;4.10;;;2.37;;
35578;SDS011;21687;48.900;9.188;2022-09-06T12:06:22;4.37;;;2.40;;
35578;SDS011;21687;48.900;9.188;2022-09-06T12:09:32;3.13;;;2.40;;
35578;SDS011;21687;48.900;9.188;2022-09-06T12:12:41;5.03;;;2.33;;
35578;SDS011;21687;48.900;9.188;2022-09-06T12:15:51;1.83;;;1.70;;
35578;SDS011;21687;48.900;9.188;2022-09-06T12:27:24;3.90;;;2.00;;
35578;SDS011;21687;48.900;9.188;2022-09-06T12:30:29;2.00;;;1.80;;
35578;SDS011;21687;48.900;9.188;2022-09-06T12:36:21;4.50;;;2.10;;
35578;SDS011;21687;48.900;9.188;2022-09-06T12:39:14;4.20;;;2.57;;
35578;SDS011;21687;48.900;9.188;2022-09-06T12:44:47;4.23;;;2.30;;
35578;SDS011;21687;48.900;9.188;2022-09-06T12:47:37;2.53;;;2.00;;
35578;SDS011;21687;48.900;9.188;2022-09-06T12:50:24;2.20;;;2.00;;
35578;SDS011;21687;48.900;9.188;2022-09-06T12:53:18;3.80;;;2.00;;
35578;SDS011;21687;48.900;9.188;2022-09-06T12:56:11;3.07;;;2.10;;
35578;SDS011;21687;48.900;9.188;2022-09-06T12:59:10;6.27;;;2.77;;
35578;SDS011;21687;48.900;9.188;2022-09-06T13:02:03;2.90;;;2.00;;
35578;SDS011;21687;48.900;9.188;2022-09-06T13:05:02;5.87;;;2.40;;
35578;SDS011;21687;48.900;9.188;2022-09-06T13:07:54;2.07;;;1.97;;
35578;SDS011;21687;48.900;9.188;2022-09-06T13:10:44;2.43;;;2.00;;
35578;SDS011;21687;48.900;9.188;2022-09-06T13:13:32;2.13;;;1.93;;
35578;SDS011;21687;48.900;9.188;2022-09-06T13:16:22;2.00;;;1.90;;
35578;SDS011;21687;48.900;9.188;2022-09-06T13:19:26;2.83;;;2.00;;
35578;SDS011;21687;48.900;9.188;2022-09-06T13:22:35;3.93;;;2.20;;
35578;SDS011;21687;48.900;9.188;2022-09-06T13:25:24;4.00;;;2.33;;
35578;SDS011;21687;48.900;9.188;2022-09-06T13:28:11;3.17;;;2.17;;
35578;SDS011;21687;48.900;9.188;2022-09-06T13:34:01;3.90;;;2.30;;
35578;SDS011;21687;48.900;9.188;2022-09-06T13:36:49;2.90;;;2.27;;
35578;SDS011;21687;48.900;9.188;2022-09-06T13:39:41;2.93;;;2.13;;
35578;SDS011;21687;48.900;9.188;2022-09-06T13:42:29;5.90;;;3.93;;
35578;SDS011;21687;48.900;9.188;2022-09-06T13:45:23;3.40;;;2.40;;
35578;SDS011;21687;48.900;9.188;2022-09-06T13:48:14;3.90;;;2.63;;
35578;SDS011;21687;48.900;9.188;2022-09-06T13:51:04;3.17;;;2.30;;
35578;SDS011;21687;48.900;9.188;2022-09-06T13:56:52;2.37;;;2.10;;
35578;SDS011;21687;48.900;9.188;2022-09-06T13:59:39;2.77;;;2.33;;
35578;SDS011;21687;48.900;9.188;2022-09-06T14:02:27;4.90;;;2.73;;
35578;SDS011;21687;48.900;9.188;2022-09-06T14:05:13;2.90;;;2.40;;
35578;SDS011;21687;48.900;9.188;2022-09-06T14:08:01;3.40;;;2.27;;
35578;SDS011;21687;48.900;9.188;2022-09-06T14:10:47;3.70;;;2.00;;
35578;SDS011;21687;48.900;9.188;2022-09-06T14:13:35;3.33;;;2.03;;
35578;SDS011;21687;48.900;9.188;2022-09-06T14:16:22;4.23;;;2.30;;
35578;SDS011;21687;48.900;9.188;2022-09-06T14:19:09;4.77;;;2.20;;
35578;SDS011;21687;48.900;9.188;2022-09-06T14:21:56;2.50;;;2.30;;
35578;SDS011;21687;48.900;9.188;2022-09-06T14:24:42;3.50;;;2.00;;
35578;SDS011;21687;48.900;9.188;2022-09-06T14:27:29;3.70;;;2.27;;
35578;SDS011;21687;48.900;9.188;2022-09-06T14:30:17;2.90;;;2.30;;
35578;SDS011;21687;48.900;9.188;2022-09-06T14:33:03;3.30;;;2.50;;
35578;SDS011;21687;48.900;9.188;2022-09-06T14:35:50;3.77;;;2.10;;
35578;SDS011;21687;48.900;9.188;2022-09-06T14:38:37;5.33;;;2.23;;
35578;SDS011;21687;48.900;9.188;2022-09-06T14:41:25;4.47;;;1.90;;
35578;SDS011;21687;48.900;9.188;2022-09-06T14:44:11;4.43;;;1.97;;
35578;SDS011;21687;48.900;9.188;2022-09-06T14:47:00;2.03;;;1.87;;
35578;SDS011;21687;48.900;9.188;2022-09-06T14:49:47;4.50;;;1.80;;
35578;SDS011;21687;48.900;9.188;2022-09-06T14:52:34;4.30;;;2.20;;
35578;SDS011;21687;48.900;9.188;2022-09-06T14:55:21;3.23;;;2.00;;
35578;SDS011;21687;48.900;9.188;2022-09-06T14:58:09;4.23;;;2.10;;
35578;SDS011;21687;48.900;9.188;2022-09-06T15:01:04;5.23;;;2.50;;
35578;SDS011;21687;48.900;9.188;2022-09-06T15:03:56;6.07;;;2.60;;
35578;SDS011;21687;48.900;9.188;2022-09-06T15:06:44;8.63;;;2.30;;
35578;SDS011;21687;48.900;9.188;2022-09-06T15:09:32;4.70;;;2.63;;
35578;SDS011;21687;48.900;9.188;2022-09-06T15:12:18;4.03;;;2.50;;
35578;SDS011;21687;48.900;9.188;2022-09-06T15:15:05;5.07;;;2.67;;
35578;SDS011;21687;48.900;9.188;2022-09-06T15:17:52;6.10;;;2.10;;
35578;SDS011;21687;48.900;9.188;2022-09-06T15:20:38;3.00;;;2.00;;
35578;SDS011;21687;48.900;9.188;2022-09-06T15:23:25;3.43;;;1.80;;
35578;SDS011;21687;48.900;9.188;2022-09-06T15:26:12;2.13;;;1.93;;
35578;SDS011;21687;48.900;9.188;2022-09-06T15:28:59;4.27;;;2.00;;
35578;SDS011;21687;48.900;9.188;2022-09-06T15:31:47;2.30;;;1.80;;
35578;SDS011;21687;48.900;9.188;2022-09-06T15:34:34;1.90;;;1.80;;
35578;SDS011;21687;48.900;9.188;2022-09-06T15:37:21;3.33;;;1.60;;
35578;SDS011;21687;48.900;9.188;2022-09-06T15:40:07;1.83;;;1.73;;
35578;SDS011;21687;48.900;9.188;2022-09-06T15:42:54;3.13;;;1.80;;
35578;SDS011;21687;48.900;9.188;2022-09-06T15:45:45;4.30;;;1.90;;
35578;SDS011;21687;48.900;9.188;2022-09-06T15:48:43;1.77;;;1.63;;
35578;SDS011;21687;48.900;9.188;2022-09-06T15:51:32;1.53;;;1.43;;
35578;SDS011;21687;48.900;9.188;2022-09-06T15:54:22;2.37;;;1.60;;
35578;SDS011;21687;48.900;9.188;2022-09-06T15:57:29;1.50;;;1.40;;
35578;SDS011;21687;48.900;9.188;2022-09-06T16:00:16;1.70;;;1.60;;
35578;SDS011;21687;48.900;9.188;2022-09-06T16:03:06;2.17;;;1.63;;
35578;SDS011;21687;48.900;9.188;2022-09-06T16:05:52;1.97;;;1.70;;
35578;SDS011;21687;48.900;9.188;2022-09-06T16:08:45;1.90;;;1.70;;
35578;SDS011;21687;48.900;9.188;2022-09-06T16:11:32;3.93;;;1.80;;
35578;SDS011;21687;48.900;9.188;2022-09-06T16:14:20;1.60;;;1.50;;
35578;SDS011;21687;48.900;9.188;2022-09-06T16:17:07;3.73;;;2.00;;
35578;SDS011;21687;48.900;9.188;2022-09-06T16:19:56;2.10;;;1.90;;
35578;SDS011;21687;48.900;9.188;2022-09-06T16:22:47;2.70;;;2.10;;
35578;SDS011;21687;48.900;9.188;2022-09-06T16:25:34;2.27;;;1.73;;
35578;SDS011;21687;48.900;9.188;2022-09-06T16:28:20;2.93;;;2.23;;
35578;SDS011;21687;48.900;9.188;2022-09-06T16:31:07;3.90;;;2.00;;
35578;SDS011;21687;48.900;9.188;2022-09-06T16:33:55;2.47;;;1.90;;
35578;SDS011;21687;48.900;9.188;2022-09-06T16:36:42;3.73;;;1.70;;
35578;SDS011;21687;48.900;9.188;2022-09-06T16:39:29;2.10;;;1.83;;
35578;SDS011;21687;48.900;9.188;2022-09-06T16:42:15;2.50;;;1.73;;
35578;SDS011;21687;48.900;9.188;2022-09-06T16:45:02;2.03;;;1.93;;
35578;SDS011;21687;48.900;9.188;2022-09-06T16:47:49;2.43;;;2.03;;
35578;SDS011;21687;48.900;9.188;2022-09-06T16:50:35;4.77;;;1.70;;
35578;SDS011;21687;48.900;9.188;2022-09-06T16:53:22;1.83;;;1.73;;
35578;SDS011;21687;48.900;9.188;2022-09-06T16:56:10;3.13;;;1.97;;
35578;SDS011;21687;48.900;9.188;2022-09-06T16:59:00;3.33;;;1.87;;
35578;SDS011;21687;48.900;9.188;2022-09-06T17:01:49;2.40;;;1.90;;
35578;SDS011;21687;48.900;9.188;2022-09-06T17:04:35;2.33;;;2.17;;
35578;SDS011;21687;48.900;9.188;2022-09-06T17:07:22;2.33;;;1.60;;
35578;SDS011;21687;48.900;9.188;2022-09-06T17:10:09;1.90;;;1.80;;
35578;SDS011;21687;48.900;9.188;2022-09-06T17:12:56;3.30;;;1.80;;
35578;SDS011;21687;48.900;9.188;2022-09-06T17:15:50;3.20;;;2.90;;
35578;SDS011;21687;48.900;9.188;2022-09-06T17:18:57;4.37;;;2.60;;
35578;SDS011;21687;48.900;9.188;2022-09-06T17:21:45;4.70;;;2.17;;
35578;SDS011;21687;48.900;9.188;2022-09-06T17:24:32;2.43;;;2.23;;
35578;SDS011;21687;48.900;9.188;2022-09-06T17:27:19;2.80;;;2.10;;
35578;SDS011;21687;48.900;9.188;2022-09-06T17:30:05;2.90;;;2.20;;
35578;SDS011;21687;48.900;9.188;2022-09-06T17:32:52;3.10;;;2.73;;
35578;SDS011;21687;48.900;9.188;2022-09-06T17:35:39;4.00;;;3.30;;
35578;SDS011;21687;48.900;9.188;2022-09-06T17:38:26;7.03;;;4.30;;
35578;SDS011;21687;48.900;9.188;2022-09-06T17:44:33;6.07;;;3.40;;
35578;SDS011;21687;48.900;9.188;2022-09-06T17:47:19;3.20;;;2.90;;
35578;SDS011;21687;48.900;9.188;2022-09-06T17:50:06;4.13;;;3.07;;
35578;SDS011;21687;48.900;9.188;2022-09-06T17:52:53;3.77;;;2.83;;
35578;SDS011;21687;48.900;9.188;2022-09-06T17:55:40;4.93;;;2.70;;
35578;SDS011;21687;48.900;9.188;2022-09-06T17:58:28;3.07;;;2.30;;
35578;SDS011;21687;48.900;9.188;2022-09-06T18:01:15;3.10;;;2.23;;
35578;SDS011;21687;48.900;9.188;2022-09-06T18:04:03;3.83;;;2.40;;
35578;SDS011;21687;48.900;9.188;2022-09-06T18:06:51;3.83;;;2.30;;
35578;SDS011;21687;48.900;9.188;2022-09-06T18:09:37;3.20;;;2.33;;
35578;SDS011;21687;48.900;9.188;2022-09-06T18:12:25;4.83;;;2.87;;
35578;SDS011;21687;48.900;9.188;2022-09-06T18:15:14;5.00;;;3.20;;
35578;SDS011;21687;48.900;9.188;2022-09-06T18:18:01;2.83;;;2.50;;
35578;SDS011;21687;48.900;9.188;2022-09-06T18:20:48;5.73;;;2.50;;
35578;SDS011;21687;48.900;9.188;2022-09-06T18:23:36;4.47;;;2.93;;
35578;SDS011;21687;48.900;9.188;2022-09-06T18:26:22;3.77;;;3.00;;
35578;SDS011;21687;48.900;9.188;2022-09-06T18:29:10;4.90;;;2.80;;
35578;SDS011;21687;48.900;9.188;2022-09-06T18:31:58;3.47;;;2.80;;